sensor_id;sensor_type;location;lat;lon;timestamp;temperature;humidity
39889;DHT22;25563;50.844;4.308;2022-10-16T00:01:36;16.00;99.90
39889;DHT22;25563;50.844;4.308;2022-10-16T00:04:02;16.00;99.90
39889;DHT22;25563;50.844;4.308;2022-10-16T00:06:28;15.90;99.90
39889;DHT22;25563;50.844;4.308;2022-10-16T00:08:54;15.90;99.90
39889;DHT22;25563;50.844;4.308;2022-10-16T00:11:23;15.90;99.90
39889;DHT22;25563;50.844;4.308;2022-10-16T00:13:54;15.90;99.90
39889;DHT22;25563;50.844;4.308;2022-10-16T00:16:20;15.90;99.90
39889;DHT22;25563;50.844;4.308;2022-10-16T00:18:46;15.80;99.90
39889;DHT22;25563;50.844;4.308;2022-10-16T00:21:18;15.80;99.90
39889;DHT22;25563;50.844;4.308;2022-10-16T00:23:44;15.90;99.90
39889;DHT22;25563;50.844;4.308;2022-10-16T00:26:14;15.80;99.90
39889;DHT22;25563;50.844;4.308;2022-10-16T00:28:40;15.90;99.90
39889;DHT22;25563;50.844;4.308;2022-10-16T00:31:08;15.80;99.90
39889;DHT22;25563;50.844;4.308;2022-10-16T00:33:35;15.80;99.90
39889;DHT22;25563;50.844;4.308;2022-10-16T00:36:02;15.80;99.90
39889;DHT22;25563;50.844;4.308;2022-10-16T00:38:29;15.80;99.90
39889;DHT22;25563;50.844;4.308;2022-10-16T00:40:55;15.80;99.90
39889;DHT22;25563;50.844;4.308;2022-10-16T00:46:19;15.70;99.90
39889;DHT22;25563;50.844;4.308;2022-10-16T00:49:01;15.70;99.90
39889;DHT22;25563;50.844;4.308;2022-10-16T00:51:33;15.70;99.90
39889;DHT22;25563;50.844;4.308;2022-10-16T00:54:01;15.60;99.90
39889;DHT22;25563;50.844;4.308;2022-10-16T00:56:27;15.60;99.90
39889;DHT22;25563;50.844;4.308;2022-10-16T00:58:53;15.60;99.90
39889;DHT22;25563;50.844;4.308;2022-10-16T01:01:19;15.60;99.90
39889;DHT22;25563;50.844;4.308;2022-10-16T01:03:44;15.60;99.90
39889;DHT22;25563;50.844;4.308;2022-10-16T01:07:12;15.60;99.90
39889;DHT22;25563;50.844;4.308;2022-10-16T01:09:26;15.50;99.90
39889;DHT22;25563;50.844;4.308;2022-10-16T01:12:10;15.50;99.90
39889;DHT22;25563;50.844;4.308;2022-10-16T01:17:28;15.50;99.90
39889;DHT22;25563;50.844;4.308;2022-10-16T01:28:11;15.40;99.90
39889;DHT22;25563;50.844;4.308;2022-10-16T01:30:40;15.40;99.90
39889;DHT22;25563;50.844;4.308;2022-10-16T01:33:33;15.40;99.90
39889;DHT22;25563;50.844;4.308;2022-10-16T01:36:09;15.40;99.90
39889;DHT22;25563;50.844;4.308;2022-10-16T01:38:38;15.40;99.90
39889;DHT22;25563;50.844;4.308;2022-10-16T01:41:15;15.40;99.90
39889;DHT22;25563;50.844;4.308;2022-10-16T01:43:58;15.40;99.90
39889;DHT22;25563;50.844;4.308;2022-10-16T01:46:26;15.40;99.90
39889;DHT22;25563;50.844;4.308;2022-10-16T01:48:54;15.50;99.90
39889;DHT22;25563;50.844;4.308;2022-10-16T01:51:20;15.40;99.90
39889;DHT22;25563;50.844;4.308;2022-10-16T01:53:53;15.40;99.90
39889;DHT22;25563;50.844;4.308;2022-10-16T01:56:20;15.40;99.90
39889;DHT22;25563;50.844;4.308;2022-10-16T01:58:53;15.40;99.90
39889;DHT22;25563;50.844;4.308;2022-10-16T02:01:22;15.40;99.90
39889;DHT22;25563;50.844;4.308;2022-10-16T02:03:52;15.40;99.90
39889;DHT22;25563;50.844;4.308;2022-10-16T02:06:19;15.40;99.90
39889;DHT22;25563;50.844;4.308;2022-10-16T02:08:45;15.40;99.90
39889;DHT22;25563;50.844;4.308;2022-10-16T02:11:12;15.40;99.90
39889;DHT22;25563;50.844;4.308;2022-10-16T02:16:07;15.40;99.90
39889;DHT22;25563;50.844;4.308;2022-10-16T02:18:34;15.40;99.90
39889;DHT22;25563;50.844;4.308;2022-10-16T02:21:26;15.40;99.90
39889;DHT22;25563;50.844;4.308;2022-10-16T02:26:57;15.30;99.90
39889;DHT22;25563;50.844;4.308;2022-10-16T02:29:26;15.30;99.90
39889;DHT22;25563;50.844;4.308;2022-10-16T02:31:58;15.30;99.90
39889;DHT22;25563;50.844;4.308;2022-10-16T02:34:27;15.30;99.90
39889;DHT22;25563;50.844;4.308;2022-10-16T02:36:55;14.80;99.90
39889;DHT22;25563;50.844;4.308;2022-10-16T02:39:22;15.30;99.90
39889;DHT22;25563;50.844;4.308;2022-10-16T02:41:51;15.30;99.90
39889;DHT22;25563;50.844;4.308;2022-10-16T02:44:16;15.30;99.90
39889;DHT22;25563;50.844;4.308;2022-10-16T02:46:42;15.30;99.90
39889;DHT22;25563;50.844;4.308;2022-10-16T02:49:08;15.20;99.90
39889;DHT22;25563;50.844;4.308;2022-10-16T02:51:34;15.20;99.90
39889;DHT22;25563;50.844;4.308;2022-10-16T02:53:59;15.30;99.90
39889;DHT22;25563;50.844;4.308;2022-10-16T02:56:25;15.30;99.90
39889;DHT22;25563;50.844;4.308;2022-10-16T02:58:50;15.30;99.90
39889;DHT22;25563;50.844;4.308;2022-10-16T03:01:16;15.30;99.90
39889;DHT22;25563;50.844;4.308;2022-10-16T03:03:42;15.30;99.90
39889;DHT22;25563;50.844;4.308;2022-10-16T03:06:08;15.30;99.90
39889;DHT22;25563;50.844;4.308;2022-10-16T03:08:35;15.30;99.90
39889;DHT22;25563;50.844;4.308;2022-10-16T03:11:01;15.30;99.90
39889;DHT22;25563;50.844;4.308;2022-10-16T03:13:27;15.30;99.90
39889;DHT22;25563;50.844;4.308;2022-10-16T03:15:52;15.30;99.90
39889;DHT22;25563;50.844;4.308;2022-10-16T03:18:19;15.30;99.90
39889;DHT22;25563;50.844;4.308;2022-10-16T03:20:44;15.40;99.90
39889;DHT22;25563;50.844;4.308;2022-10-16T03:23:10;15.30;99.90
39889;DHT22;25563;50.844;4.308;2022-10-16T03:25:36;15.30;99.90
39889;DHT22;25563;50.844;4.308;2022-10-16T03:28:02;15.30;99.90
39889;DHT22;25563;50.844;4.308;2022-10-16T03:30:28;15.30;99.90
39889;DHT22;25563;50.844;4.308;2022-10-16T03:32:54;15.30;99.90
39889;DHT22;25563;50.844;4.308;2022-10-16T03:35:21;15.30;99.90
39889;DHT22;25563;50.844;4.308;2022-10-16T03:37:47;15.30;99.90
39889;DHT22;25563;50.844;4.308;2022-10-16T03:40:13;15.30;99.90
39889;DHT22;25563;50.844;4.308;2022-10-16T03:42:38;15.30;99.90
39889;DHT22;25563;50.844;4.308;2022-10-16T03:45:05;15.30;99.90
39889;DHT22;25563;50.844;4.308;2022-10-16T03:47:31;15.30;99.90
39889;DHT22;25563;50.844;4.308;2022-10-16T03:49:59;15.30;99.90
39889;DHT22;25563;50.844;4.308;2022-10-16T03:52:25;15.30;99.90
39889;DHT22;25563;50.844;4.308;2022-10-16T03:54:51;15.30;99.90
39889;DHT22;25563;50.844;4.308;2022-10-16T03:57:20;15.30;99.90
39889;DHT22;25563;50.844;4.308;2022-10-16T03:59:46;15.40;99.90
39889;DHT22;25563;50.844;4.308;2022-10-16T04:02:12;15.40;99.90
39889;DHT22;25563;50.844;4.308;2022-10-16T04:04:38;15.30;99.90
39889;DHT22;25563;50.844;4.308;2022-10-16T04:07:04;15.30;99.90
39889;DHT22;25563;50.844;4.308;2022-10-16T04:09:30;15.30;99.90
39889;DHT22;25563;50.844;4.308;2022-10-16T04:11:56;15.30;99.90
39889;DHT22;25563;50.844;4.308;2022-10-16T04:14:22;15.30;99.90
39889;DHT22;25563;50.844;4.308;2022-10-16T04:16:48;15.30;99.90
39889;DHT22;25563;50.844;4.308;2022-10-16T04:19:13;15.20;99.90
39889;DHT22;25563;50.844;4.308;2022-10-16T04:21:39;15.20;99.90
39889;DHT22;25563;50.844;4.308;2022-10-16T04:24:04;15.20;99.90
39889;DHT22;25563;50.844;4.308;2022-10-16T04:26:31;15.20;99.90
39889;DHT22;25563;50.844;4.308;2022-10-16T04:28:57;15.20;99.90
39889;DHT22;25563;50.844;4.308;2022-10-16T04:31:22;15.20;99.90
39889;DHT22;25563;50.844;4.308;2022-10-16T04:33:48;15.20;99.90
39889;DHT22;25563;50.844;4.308;2022-10-16T04:36:14;15.20;99.90
39889;DHT22;25563;50.844;4.308;2022-10-16T04:38:40;15.20;99.90
39889;DHT22;25563;50.844;4.308;2022-10-16T04:41:07;15.20;99.90
39889;DHT22;25563;50.844;4.308;2022-10-16T04:43:33;15.20;99.90
39889;DHT22;25563;50.844;4.308;2022-10-16T04:45:59;15.20;99.90
39889;DHT22;25563;50.844;4.308;2022-10-16T04:48:24;15.20;99.90
39889;DHT22;25563;50.844;4.308;2022-10-16T04:50:51;15.20;99.90
39889;DHT22;25563;50.844;4.308;2022-10-16T04:53:17;15.10;99.90
39889;DHT22;25563;50.844;4.308;2022-10-16T04:55:43;15.20;99.90
39889;DHT22;25563;50.844;4.308;2022-10-16T04:58:09;15.10;99.90
39889;DHT22;25563;50.844;4.308;2022-10-16T05:00:35;15.10;99.90
39889;DHT22;25563;50.844;4.308;2022-10-16T05:03:01;15.10;99.90
39889;DHT22;25563;50.844;4.308;2022-10-16T05:05:27;15.10;99.90
39889;DHT22;25563;50.844;4.308;2022-10-16T05:07:53;15.10;99.90
39889;DHT22;25563;50.844;4.308;2022-10-16T05:10:19;15.00;99.90
39889;DHT22;25563;50.844;4.308;2022-10-16T05:12:45;15.00;99.90
39889;DHT22;25563;50.844;4.308;2022-10-16T05:15:11;15.00;99.90
39889;DHT22;25563;50.844;4.308;2022-10-16T05:17:38;15.00;99.90
39889;DHT22;25563;50.844;4.308;2022-10-16T05:20:04;15.00;99.90
39889;DHT22;25563;50.844;4.308;2022-10-16T05:22:30;15.00;99.90
39889;DHT22;25563;50.844;4.308;2022-10-16T05:24:56;14.90;99.90
39889;DHT22;25563;50.844;4.308;2022-10-16T05:27:21;14.90;99.90
39889;DHT22;25563;50.844;4.308;2022-10-16T05:29:48;14.90;99.90
39889;DHT22;25563;50.844;4.308;2022-10-16T05:32:15;14.80;99.90
39889;DHT22;25563;50.844;4.308;2022-10-16T05:34:41;14.80;99.90
39889;DHT22;25563;50.844;4.308;2022-10-16T05:37:07;14.80;99.90
39889;DHT22;25563;50.844;4.308;2022-10-16T05:39:33;14.80;99.90
39889;DHT22;25563;50.844;4.308;2022-10-16T05:41:59;14.80;99.90
39889;DHT22;25563;50.844;4.308;2022-10-16T05:44:24;14.70;99.90
39889;DHT22;25563;50.844;4.308;2022-10-16T05:46:50;14.80;99.90
39889;DHT22;25563;50.844;4.308;2022-10-16T05:49:16;14.80;99.90
39889;DHT22;25563;50.844;4.308;2022-10-16T05:51:41;14.80;99.90
39889;DHT22;25563;50.844;4.308;2022-10-16T05:54:07;14.80;99.90
39889;DHT22;25563;50.844;4.308;2022-10-16T05:56:33;14.80;99.90
39889;DHT22;25563;50.844;4.308;2022-10-16T05:58:59;14.80;99.90
39889;DHT22;25563;50.844;4.308;2022-10-16T06:01:25;14.70;99.90
39889;DHT22;25563;50.844;4.308;2022-10-16T06:03:52;14.70;99.90
39889;DHT22;25563;50.844;4.308;2022-10-16T06:06:20;14.80;99.90
39889;DHT22;25563;50.844;4.308;2022-10-16T06:08:47;14.80;99.90
39889;DHT22;25563;50.844;4.308;2022-10-16T06:11:19;14.80;99.90
39889;DHT22;25563;50.844;4.308;2022-10-16T06:13:45;14.80;99.90
39889;DHT22;25563;50.844;4.308;2022-10-16T06:16:12;14.80;99.90
39889;DHT22;25563;50.844;4.308;2022-10-16T06:18:38;14.80;99.90
39889;DHT22;25563;50.844;4.308;2022-10-16T06:21:13;14.90;99.90
39889;DHT22;25563;50.844;4.308;2022-10-16T06:23:39;14.90;99.90
39889;DHT22;25563;50.844;4.308;2022-10-16T06:26:11;15.00;99.90
39889;DHT22;25563;50.844;4.308;2022-10-16T06:28:37;15.10;99.90
39889;DHT22;25563;50.844;4.308;2022-10-16T06:31:04;15.10;99.90
39889;DHT22;25563;50.844;4.308;2022-10-16T06:33:30;15.10;99.90
39889;DHT22;25563;50.844;4.308;2022-10-16T06:36:03;15.20;99.90
39889;DHT22;25563;50.844;4.308;2022-10-16T06:38:30;15.20;99.90
39889;DHT22;25563;50.844;4.308;2022-10-16T06:40:56;15.20;99.90
39889;DHT22;25563;50.844;4.308;2022-10-16T06:43:22;15.20;99.90
39889;DHT22;25563;50.844;4.308;2022-10-16T06:45:56;15.20;99.90
39889;DHT22;25563;50.844;4.308;2022-10-16T06:48:22;15.20;99.90
39889;DHT22;25563;50.844;4.308;2022-10-16T06:51:04;15.30;99.90
39889;DHT22;25563;50.844;4.308;2022-10-16T06:53:32;15.30;99.90
39889;DHT22;25563;50.844;4.308;2022-10-16T06:56:05;15.30;99.90
39889;DHT22;25563;50.844;4.308;2022-10-16T06:58:31;15.30;99.90
39889;DHT22;25563;50.844;4.308;2022-10-16T07:00:57;15.30;99.90
39889;DHT22;25563;50.844;4.308;2022-10-16T07:03:22;15.20;99.90
39889;DHT22;25563;50.844;4.308;2022-10-16T07:05:48;15.30;99.90
39889;DHT22;25563;50.844;4.308;2022-10-16T07:08:14;15.20;99.90
39889;DHT22;25563;50.844;4.308;2022-10-16T07:10:39;15.20;99.90
39889;DHT22;25563;50.844;4.308;2022-10-16T07:13:05;15.30;99.90
39889;DHT22;25563;50.844;4.308;2022-10-16T07:15:32;15.20;99.90
39889;DHT22;25563;50.844;4.308;2022-10-16T07:18:01;15.20;99.90
39889;DHT22;25563;50.844;4.308;2022-10-16T07:20:26;15.20;99.90
39889;DHT22;25563;50.844;4.308;2022-10-16T07:22:52;15.20;99.90
39889;DHT22;25563;50.844;4.308;2022-10-16T07:25:18;15.30;99.90
39889;DHT22;25563;50.844;4.308;2022-10-16T07:27:43;15.30;99.90
39889;DHT22;25563;50.844;4.308;2022-10-16T07:30:10;15.30;99.90
39889;DHT22;25563;50.844;4.308;2022-10-16T07:32:36;15.30;99.90
39889;DHT22;25563;50.844;4.308;2022-10-16T07:35:02;15.40;99.90
39889;DHT22;25563;50.844;4.308;2022-10-16T07:37:27;15.40;99.90
39889;DHT22;25563;50.844;4.308;2022-10-16T07:39:53;15.40;99.90
39889;DHT22;25563;50.844;4.308;2022-10-16T07:42:19;15.40;99.90
39889;DHT22;25563;50.844;4.308;2022-10-16T07:44:45;15.50;99.90
39889;DHT22;25563;50.844;4.308;2022-10-16T07:47:11;15.50;99.90
39889;DHT22;25563;50.844;4.308;2022-10-16T07:49:36;15.40;99.90
39889;DHT22;25563;50.844;4.308;2022-10-16T07:52:04;15.40;99.90
39889;DHT22;25563;50.844;4.308;2022-10-16T07:54:29;15.40;99.90
39889;DHT22;25563;50.844;4.308;2022-10-16T07:56:55;15.50;99.90
39889;DHT22;25563;50.844;4.308;2022-10-16T07:59:21;15.50;99.90
39889;DHT22;25563;50.844;4.308;2022-10-16T08:01:49;15.50;99.90
39889;DHT22;25563;50.844;4.308;2022-10-16T08:04:14;15.60;99.90
39889;DHT22;25563;50.844;4.308;2022-10-16T08:06:40;15.60;99.90
39889;DHT22;25563;50.844;4.308;2022-10-16T08:09:07;15.70;99.90
39889;DHT22;25563;50.844;4.308;2022-10-16T08:11:34;15.70;99.90
39889;DHT22;25563;50.844;4.308;2022-10-16T08:13:59;15.80;99.90
39889;DHT22;25563;50.844;4.308;2022-10-16T08:16:25;15.80;99.90
39889;DHT22;25563;50.844;4.308;2022-10-16T08:18:51;15.80;99.90
39889;DHT22;25563;50.844;4.308;2022-10-16T08:21:20;15.90;99.90
39889;DHT22;25563;50.844;4.308;2022-10-16T08:23:46;15.90;99.90
39889;DHT22;25563;50.844;4.308;2022-10-16T08:26:12;16.00;99.90
39889;DHT22;25563;50.844;4.308;2022-10-16T08:28:38;16.00;99.90
39889;DHT22;25563;50.844;4.308;2022-10-16T08:31:11;16.10;99.90
39889;DHT22;25563;50.844;4.308;2022-10-16T08:33:38;16.10;99.90
39889;DHT22;25563;50.844;4.308;2022-10-16T08:36:05;16.10;99.90
39889;DHT22;25563;50.844;4.308;2022-10-16T08:38:33;16.20;99.90
39889;DHT22;25563;50.844;4.308;2022-10-16T08:44:19;16.30;99.90
39889;DHT22;25563;50.844;4.308;2022-10-16T08:49:37;16.40;99.90
39889;DHT22;25563;50.844;4.308;2022-10-16T08:52:04;16.50;99.90
39889;DHT22;25563;50.844;4.308;2022-10-16T08:54:39;16.50;99.90
39889;DHT22;25563;50.844;4.308;2022-10-16T08:57:11;16.50;99.90
39889;DHT22;25563;50.844;4.308;2022-10-16T08:59:37;16.60;99.90
39889;DHT22;25563;50.844;4.308;2022-10-16T09:02:59;16.70;99.90
39889;DHT22;25563;50.844;4.308;2022-10-16T09:08:43;16.80;99.90
39889;DHT22;25563;50.844;4.308;2022-10-16T09:16:42;17.00;99.90
39889;DHT22;25563;50.844;4.308;2022-10-16T09:19:29;17.00;99.90
39889;DHT22;25563;50.844;4.308;2022-10-16T09:21:58;17.10;99.90
39889;DHT22;25563;50.844;4.308;2022-10-16T09:24:26;17.10;99.90
39889;DHT22;25563;50.844;4.308;2022-10-16T09:26:52;17.20;99.90
39889;DHT22;25563;50.844;4.308;2022-10-16T09:29:19;17.20;99.90
39889;DHT22;25563;50.844;4.308;2022-10-16T09:31:46;17.30;99.90
39889;DHT22;25563;50.844;4.308;2022-10-16T09:34:30;17.30;99.90
39889;DHT22;25563;50.844;4.308;2022-10-16T09:36:57;17.40;99.90
39889;DHT22;25563;50.844;4.308;2022-10-16T09:39:25;17.50;99.90
39889;DHT22;25563;50.844;4.308;2022-10-16T09:41:51;17.70;99.90
39889;DHT22;25563;50.844;4.308;2022-10-16T09:44:27;17.70;99.90
39889;DHT22;25563;50.844;4.308;2022-10-16T09:47:04;17.80;99.90
39889;DHT22;25563;50.844;4.308;2022-10-16T09:49:30;17.90;99.90
39889;DHT22;25563;50.844;4.308;2022-10-16T09:52:09;18.00;99.90
39889;DHT22;25563;50.844;4.308;2022-10-16T09:54:36;18.00;99.90
39889;DHT22;25563;50.844;4.308;2022-10-16T09:57:07;18.00;99.90
39889;DHT22;25563;50.844;4.308;2022-10-16T09:59:33;18.00;99.90
39889;DHT22;25563;50.844;4.308;2022-10-16T10:02:04;18.00;99.90
39889;DHT22;25563;50.844;4.308;2022-10-16T10:05:04;18.20;99.90
39889;DHT22;25563;50.844;4.308;2022-10-16T10:07:33;18.30;99.90
39889;DHT22;25563;50.844;4.308;2022-10-16T10:10:02;18.50;99.90
39889;DHT22;25563;50.844;4.308;2022-10-16T10:12:30;18.50;99.90
39889;DHT22;25563;50.844;4.308;2022-10-16T10:15:10;18.50;99.90
39889;DHT22;25563;50.844;4.308;2022-10-16T10:17:46;18.60;99.90
39889;DHT22;25563;50.844;4.308;2022-10-16T10:20:33;18.70;99.90
39889;DHT22;25563;50.844;4.308;2022-10-16T10:23:01;18.80;99.90
39889;DHT22;25563;50.844;4.308;2022-10-16T10:36:39;19.10;99.90
39889;DHT22;25563;50.844;4.308;2022-10-16T10:39:23;19.20;99.90
39889;DHT22;25563;50.844;4.308;2022-10-16T10:55:22;19.70;99.10
39889;DHT22;25563;50.844;4.308;2022-10-16T11:03:35;20.10;98.80
39889;DHT22;25563;50.844;4.308;2022-10-16T11:06:22;20.30;98.40
39889;DHT22;25563;50.844;4.308;2022-10-16T11:09:07;20.70;98.30
39889;DHT22;25563;50.844;4.308;2022-10-16T11:11:45;21.00;97.40
39889;DHT22;25563;50.844;4.308;2022-10-16T11:14:35;21.10;97.10
39889;DHT22;25563;50.844;4.308;2022-10-16T11:19:44;21.10;96.50
39889;DHT22;25563;50.844;4.308;2022-10-16T11:24:55;21.10;96.40
39889;DHT22;25563;50.844;4.308;2022-10-16T11:27:45;21.20;96.10
39889;DHT22;25563;50.844;4.308;2022-10-16T11:30:25;22.20;95.50
39889;DHT22;25563;50.844;4.308;2022-10-16T11:33:27;22.20;94.90
39889;DHT22;25563;50.844;4.308;2022-10-16T11:36:16;22.60;94.70
39889;DHT22;25563;50.844;4.308;2022-10-16T11:41:34;25.20;91.10
39889;DHT22;25563;50.844;4.308;2022-10-16T11:49:46;22.80;92.70
39889;DHT22;25563;50.844;4.308;2022-10-16T11:52:52;22.40;93.30
39889;DHT22;25563;50.844;4.308;2022-10-16T11:55:27;22.20;93.70
39889;DHT22;25563;50.844;4.308;2022-10-16T12:03:30;21.90;94.30
39889;DHT22;25563;50.844;4.308;2022-10-16T12:06:59;22.40;94.40
39889;DHT22;25563;50.844;4.308;2022-10-16T12:09:05;22.70;93.80
39889;DHT22;25563;50.844;4.308;2022-10-16T12:11:35;22.90;93.20
39889;DHT22;25563;50.844;4.308;2022-10-16T12:14:20;23.50;92.60
39889;DHT22;25563;50.844;4.308;2022-10-16T12:19:24;23.30;92.50
39889;DHT22;25563;50.844;4.308;2022-10-16T12:21:51;23.40;92.30
39889;DHT22;25563;50.844;4.308;2022-10-16T12:24:38;23.10;92.40
39889;DHT22;25563;50.844;4.308;2022-10-16T12:29:47;23.80;91.90
39889;DHT22;25563;50.844;4.308;2022-10-16T12:32:39;24.40;91.30
39889;DHT22;25563;50.844;4.308;2022-10-16T12:35:17;24.10;91.10
39889;DHT22;25563;50.844;4.308;2022-10-16T12:37:44;24.10;90.90
39889;DHT22;25563;50.844;4.308;2022-10-16T12:40:31;24.10;90.50
39889;DHT22;25563;50.844;4.308;2022-10-16T12:42:57;23.80;90.70
39889;DHT22;25563;50.844;4.308;2022-10-16T12:47:51;23.10;90.50
39889;DHT22;25563;50.844;4.308;2022-10-16T12:50:38;22.90;91.00
39889;DHT22;25563;50.844;4.308;2022-10-16T12:53:21;22.80;91.60
39889;DHT22;25563;50.844;4.308;2022-10-16T12:56:00;22.60;91.90
39889;DHT22;25563;50.844;4.308;2022-10-16T12:58:50;22.60;91.70
39889;DHT22;25563;50.844;4.308;2022-10-16T13:09:59;22.60;91.20
39889;DHT22;25563;50.844;4.308;2022-10-16T13:15:19;22.50;91.20
39889;DHT22;25563;50.844;4.308;2022-10-16T13:23:36;22.80;91.30
39889;DHT22;25563;50.844;4.308;2022-10-16T13:27:02;22.90;91.30
39889;DHT22;25563;50.844;4.308;2022-10-16T13:29:02;22.80;91.30
39889;DHT22;25563;50.844;4.308;2022-10-16T13:31:29;22.80;91.20
39889;DHT22;25563;50.844;4.308;2022-10-16T13:33:58;22.80;91.30
39889;DHT22;25563;50.844;4.308;2022-10-16T13:36:43;22.90;91.40
39889;DHT22;25563;50.844;4.308;2022-10-16T13:39:24;22.90;91.30
39889;DHT22;25563;50.844;4.308;2022-10-16T13:42:04;22.90;91.40
39889;DHT22;25563;50.844;4.308;2022-10-16T13:44:39;22.70;91.50
39889;DHT22;25563;50.844;4.308;2022-10-16T13:47:18;22.60;91.80
39889;DHT22;25563;50.844;4.308;2022-10-16T13:49:45;22.50;91.90
39889;DHT22;25563;50.844;4.308;2022-10-16T13:52:19;22.40;92.10
39889;DHT22;25563;50.844;4.308;2022-10-16T13:54:46;22.40;92.30
39889;DHT22;25563;50.844;4.308;2022-10-16T13:57:15;22.30;92.30
39889;DHT22;25563;50.844;4.308;2022-10-16T13:59:42;22.30;92.40
39889;DHT22;25563;50.844;4.308;2022-10-16T14:02:35;22.40;92.20
39889;DHT22;25563;50.844;4.308;2022-10-16T14:05:04;22.30;92.10
39889;DHT22;25563;50.844;4.308;2022-10-16T14:07:34;22.20;92.20
39889;DHT22;25563;50.844;4.308;2022-10-16T14:10:03;22.10;91.90
39889;DHT22;25563;50.844;4.308;2022-10-16T14:12:30;22.00;91.90
39889;DHT22;25563;50.844;4.308;2022-10-16T14:14:57;21.90;91.50
39889;DHT22;25563;50.844;4.308;2022-10-16T14:19:51;21.70;91.90
39889;DHT22;25563;50.844;4.308;2022-10-16T14:27:59;21.70;92.30
39889;DHT22;25563;50.844;4.308;2022-10-16T14:30:25;21.70;92.20
39889;DHT22;25563;50.844;4.308;2022-10-16T14:32:59;21.70;92.20
39889;DHT22;25563;50.844;4.308;2022-10-16T14:35:31;21.70;92.40
39889;DHT22;25563;50.844;4.308;2022-10-16T14:38:00;21.70;92.50
39889;DHT22;25563;50.844;4.308;2022-10-16T14:40:32;21.80;92.40
39889;DHT22;25563;50.844;4.308;2022-10-16T14:42:59;21.90;92.50
39889;DHT22;25563;50.844;4.308;2022-10-16T14:45:29;21.90;92.20
39889;DHT22;25563;50.844;4.308;2022-10-16T14:47:57;21.90;92.20
39889;DHT22;25563;50.844;4.308;2022-10-16T14:50:25;21.90;92.20
39889;DHT22;25563;50.844;4.308;2022-10-16T14:52:50;21.90;92.30
39889;DHT22;25563;50.844;4.308;2022-10-16T14:55:17;21.90;92.40
39889;DHT22;25563;50.844;4.308;2022-10-16T14:57:44;21.90;92.30
39889;DHT22;25563;50.844;4.308;2022-10-16T15:00:19;21.90;92.40
39889;DHT22;25563;50.844;4.308;2022-10-16T15:02:46;21.90;92.20
39889;DHT22;25563;50.844;4.308;2022-10-16T15:05:14;21.80;92.20
39889;DHT22;25563;50.844;4.308;2022-10-16T15:07:40;21.80;92.30
39889;DHT22;25563;50.844;4.308;2022-10-16T15:10:05;21.80;92.20
39889;DHT22;25563;50.844;4.308;2022-10-16T15:12:31;21.80;92.40
39889;DHT22;25563;50.844;4.308;2022-10-16T15:14:57;21.70;92.40
39889;DHT22;25563;50.844;4.308;2022-10-16T15:17:22;21.70;92.40
39889;DHT22;25563;50.844;4.308;2022-10-16T15:19:49;21.60;92.40
39889;DHT22;25563;50.844;4.308;2022-10-16T15:22:16;21.50;92.50
39889;DHT22;25563;50.844;4.308;2022-10-16T15:24:42;21.40;92.60
39889;DHT22;25563;50.844;4.308;2022-10-16T15:27:08;21.40;92.60
39889;DHT22;25563;50.844;4.308;2022-10-16T15:29:34;21.30;92.80
39889;DHT22;25563;50.844;4.308;2022-10-16T15:32:00;21.20;92.80
39889;DHT22;25563;50.844;4.308;2022-10-16T15:34:26;21.10;92.80
39889;DHT22;25563;50.844;4.308;2022-10-16T15:36:52;21.00;93.10
39889;DHT22;25563;50.844;4.308;2022-10-16T15:39:21;20.90;93.20
39889;DHT22;25563;50.844;4.308;2022-10-16T15:41:47;20.80;93.60
39889;DHT22;25563;50.844;4.308;2022-10-16T15:44:16;20.80;93.60
39889;DHT22;25563;50.844;4.308;2022-10-16T15:46:42;20.70;93.80
39889;DHT22;25563;50.844;4.308;2022-10-16T15:49:08;20.70;93.90
39889;DHT22;25563;50.844;4.308;2022-10-16T15:51:38;20.60;94.30
39889;DHT22;25563;50.844;4.308;2022-10-16T15:54:04;20.60;94.20
39889;DHT22;25563;50.844;4.308;2022-10-16T15:56:30;20.60;94.30
39889;DHT22;25563;50.844;4.308;2022-10-16T15:58:59;20.50;94.50
39889;DHT22;25563;50.844;4.308;2022-10-16T16:01:25;20.50;94.60
39889;DHT22;25563;50.844;4.308;2022-10-16T16:03:55;20.40;94.70
39889;DHT22;25563;50.844;4.308;2022-10-16T16:06:21;20.40;94.80
39889;DHT22;25563;50.844;4.308;2022-10-16T16:08:47;20.40;94.80
39889;DHT22;25563;50.844;4.308;2022-10-16T16:11:14;20.30;94.90
39889;DHT22;25563;50.844;4.308;2022-10-16T16:13:40;20.30;95.20
39889;DHT22;25563;50.844;4.308;2022-10-16T16:16:12;20.20;95.40
39889;DHT22;25563;50.844;4.308;2022-10-16T16:18:38;20.20;95.60
39889;DHT22;25563;50.844;4.308;2022-10-16T16:21:04;20.20;95.60
39889;DHT22;25563;50.844;4.308;2022-10-16T16:23:31;20.10;95.70
39889;DHT22;25563;50.844;4.308;2022-10-16T16:26:05;20.10;95.80
39889;DHT22;25563;50.844;4.308;2022-10-16T16:28:31;20.10;95.90
39889;DHT22;25563;50.844;4.308;2022-10-16T16:30:56;20.10;96.00
39889;DHT22;25563;50.844;4.308;2022-10-16T16:33:22;20.10;96.10
39889;DHT22;25563;50.844;4.308;2022-10-16T16:35:48;20.00;96.20
39889;DHT22;25563;50.844;4.308;2022-10-16T16:38:14;20.00;96.30
39889;DHT22;25563;50.844;4.308;2022-10-16T16:40:40;20.00;96.40
39889;DHT22;25563;50.844;4.308;2022-10-16T16:43:05;20.00;96.50
39889;DHT22;25563;50.844;4.308;2022-10-16T16:45:35;20.00;96.70
39889;DHT22;25563;50.844;4.308;2022-10-16T16:48:01;20.00;96.90
39889;DHT22;25563;50.844;4.308;2022-10-16T16:50:26;20.00;96.90
39889;DHT22;25563;50.844;4.308;2022-10-16T16:52:52;20.00;97.00
39889;DHT22;25563;50.844;4.308;2022-10-16T16:55:19;20.00;97.10
39889;DHT22;25563;50.844;4.308;2022-10-16T16:57:47;20.00;97.20
39889;DHT22;25563;50.844;4.308;2022-10-16T17:00:13;20.00;97.30
39889;DHT22;25563;50.844;4.308;2022-10-16T17:02:39;20.00;97.30
39889;DHT22;25563;50.844;4.308;2022-10-16T17:05:08;20.00;97.60
39889;DHT22;25563;50.844;4.308;2022-10-16T17:07:34;19.90;97.90
39889;DHT22;25563;50.844;4.308;2022-10-16T17:10:01;19.90;98.40
39889;DHT22;25563;50.844;4.308;2022-10-16T17:12:28;19.80;99.20
39889;DHT22;25563;50.844;4.308;2022-10-16T17:14:53;19.70;99.50
39889;DHT22;25563;50.844;4.308;2022-10-16T17:17:19;19.60;99.90
39889;DHT22;25563;50.844;4.308;2022-10-16T17:19:45;19.50;99.90
39889;DHT22;25563;50.844;4.308;2022-10-16T17:22:11;19.40;99.90
39889;DHT22;25563;50.844;4.308;2022-10-16T17:24:37;19.30;99.90
39889;DHT22;25563;50.844;4.308;2022-10-16T17:27:02;19.30;99.90
39889;DHT22;25563;50.844;4.308;2022-10-16T17:29:28;19.20;99.90
39889;DHT22;25563;50.844;4.308;2022-10-16T17:31:55;19.10;99.90
39889;DHT22;25563;50.844;4.308;2022-10-16T17:34:21;19.10;99.90
39889;DHT22;25563;50.844;4.308;2022-10-16T17:36:47;19.10;99.90
39889;DHT22;25563;50.844;4.308;2022-10-16T17:39:14;19.00;99.90
39889;DHT22;25563;50.844;4.308;2022-10-16T17:41:42;19.00;99.90